createdAt,value
2022-11-20T00:01:23.661Z,9.17
2022-11-20T00:03:53.311Z,9.13
2022-11-20T00:06:22.438Z,9.70
2022-11-20T00:08:50.861Z,10.50
2022-11-20T00:11:22.879Z,9.23
2022-11-20T00:13:52.624Z,9.30
2022-11-20T00:16:22.526Z,9.53
2022-11-20T00:18:51.074Z,9.10
2022-11-20T00:21:22.015Z,9.97
2022-11-20T00:23:54.910Z,9.17
2022-11-20T00:26:26.307Z,8.73
2022-11-20T00:28:56.995Z,9.63
2022-11-20T00:31:25.448Z,8.50
2022-11-20T00:33:54.149Z,9.03
2022-11-20T00:36:23.681Z,9.63
2022-11-20T00:38:54.072Z,9.40
2022-11-20T00:41:22.784Z,9.93
2022-11-20T00:43:53.801Z,8.97
2022-11-20T00:46:23.999Z,9.73
2022-11-20T00:48:51.832Z,10.00
2022-11-20T00:51:22.401Z,9.50
2022-11-20T00:53:50.439Z,10.13
2022-11-20T00:56:19.845Z,9.43
2022-11-20T00:58:49.062Z,10.13
2022-11-20T01:01:20.493Z,9.87
2022-11-20T01:03:51.042Z,9.40
2022-11-20T01:06:29.604Z,9.17
2022-11-20T01:08:58.990Z,9.33
2022-11-20T01:11:29.088Z,10.20
2022-11-20T01:13:58.106Z,9.47
2022-11-20T01:16:29.441Z,9.80
2022-11-20T01:18:59.559Z,9.63
2022-11-20T01:21:29.055Z,8.60
2022-11-20T01:23:57.136Z,10.17
2022-11-20T01:26:26.830Z,9.50
2022-11-20T01:28:55.887Z,9.90
2022-11-20T01:31:26.001Z,9.13
2022-11-20T01:34:05.874Z,9.60
2022-11-20T01:36:35.032Z,8.87
2022-11-20T01:39:07.747Z,9.53
2022-11-20T01:41:53.864Z,9.60
2022-11-20T01:44:23.862Z,10.40
2022-11-20T01:46:59.610Z,9.07
2022-11-20T01:49:36.926Z,9.47
2022-11-20T01:52:10.342Z,10.53
2022-11-20T01:54:43.197Z,10.43
2022-11-20T01:57:14.243Z,9.93
2022-11-20T01:59:46.853Z,10.13
2022-11-20T02:02:14.657Z,9.23
2022-11-20T02:04:44.078Z,9.30
2022-11-20T02:07:12.862Z,9.23
2022-11-20T02:09:40.932Z,9.17
2022-11-20T02:12:29.927Z,9.80
2022-11-20T02:14:59.566Z,9.53
2022-11-20T02:17:28.039Z,9.77
2022-11-20T02:19:57.411Z,9.70
2022-11-20T02:22:31.055Z,9.63
2022-11-20T02:25:03.454Z,8.77
2022-11-20T02:27:31.366Z,9.07
2022-11-20T02:30:03.164Z,9.97
2022-11-20T02:32:33.505Z,9.87
2022-11-20T02:35:09.213Z,10.33
2022-11-20T02:37:40.932Z,9.67
2022-11-20T02:40:11.726Z,9.77
2022-11-20T02:42:40.437Z,10.57
2022-11-20T02:45:09.299Z,9.90
2022-11-20T02:47:37.292Z,10.27
2022-11-20T02:50:05.964Z,10.60
2022-11-20T02:52:34.028Z,10.90
2022-11-20T02:55:01.971Z,10.37
2022-11-20T02:57:31.396Z,10.37
2022-11-20T02:59:59.225Z,10.60
2022-11-20T03:02:27.357Z,10.70
2022-11-20T03:04:55.095Z,10.10
2022-11-20T03:07:23.010Z,9.80
2022-11-20T03:09:53.581Z,10.47
2022-11-20T03:12:21.392Z,10.57
2022-11-20T03:14:53.514Z,10.40
2022-11-20T03:17:21.568Z,10.73
2022-11-20T03:19:49.357Z,11.17
2022-11-20T03:22:17.145Z,11.83
2022-11-20T03:24:45.556Z,11.33
2022-11-20T03:27:13.366Z,10.80
2022-11-20T03:29:41.159Z,10.03
2022-11-20T03:32:10.302Z,12.10
2022-11-20T03:34:38.112Z,10.70
2022-11-20T03:37:06.058Z,11.13
2022-11-20T03:39:34.150Z,11.17
2022-11-20T03:42:01.946Z,11.30
2022-11-20T03:44:29.802Z,10.90
2022-11-20T03:46:57.625Z,11.07
2022-11-20T03:49:26.833Z,11.10
2022-11-20T03:51:55.062Z,10.90
2022-11-20T03:54:23.222Z,10.83
2022-11-20T03:56:51.021Z,11.53
2022-11-20T03:59:19.209Z,11.77
2022-11-20T04:01:49.605Z,11.83
2022-11-20T04:04:17.625Z,10.77
2022-11-20T04:06:47.317Z,11.77
2022-11-20T04:09:15.195Z,12.67
2022-11-20T04:11:43.166Z,11.80
2022-11-20T04:14:16.546Z,11.63
2022-11-20T04:16:44.989Z,11.43
2022-11-20T04:19:14.530Z,10.90
2022-11-20T04:21:42.813Z,11.70
2022-11-20T04:24:12.290Z,12.60
2022-11-20T04:26:40.347Z,12.20
2022-11-20T04:29:08.823Z,12.70
2022-11-20T04:31:38.781Z,11.83
2022-11-20T04:34:09.993Z,12.57
2022-11-20T04:36:37.771Z,11.10
2022-11-20T04:39:08.213Z,12.40
2022-11-20T04:41:38.780Z,12.20
2022-11-20T04:44:08.384Z,13.33
2022-11-20T04:46:38.112Z,11.83
2022-11-20T04:49:06.591Z,12.57
2022-11-20T04:51:35.010Z,11.83
2022-11-20T04:54:03.393Z,11.70
2022-11-20T04:56:31.266Z,12.00
2022-11-20T04:59:03.950Z,11.93
2022-11-20T05:01:32.076Z,12.40
2022-11-20T05:04:00.064Z,11.23
2022-11-20T05:06:27.900Z,12.83
2022-11-20T05:08:56.069Z,13.40
2022-11-20T05:11:24.079Z,12.73
2022-11-20T05:13:53.354Z,12.20
2022-11-20T05:16:24.534Z,13.07
2022-11-20T05:18:53.710Z,13.43
2022-11-20T05:21:22.045Z,12.23
2022-11-20T05:23:51.405Z,12.87
2022-11-20T05:26:22.236Z,13.63
2022-11-20T05:28:50.080Z,12.73
2022-11-20T05:31:26.230Z,11.40
2022-11-20T05:33:57.871Z,13.33
2022-11-20T05:36:26.093Z,13.10
2022-11-20T05:38:59.686Z,12.20
2022-11-20T05:41:29.107Z,12.80
2022-11-20T05:43:58.565Z,12.40
2022-11-20T05:46:28.946Z,12.40
2022-11-20T05:49:00.194Z,12.13
2022-11-20T05:51:28.592Z,13.93
2022-11-20T05:53:58.460Z,12.73
2022-11-20T05:56:26.372Z,12.43
2022-11-20T05:58:54.214Z,13.07
2022-11-20T06:01:23.733Z,13.27
2022-11-20T06:03:52.753Z,11.87
2022-11-20T06:06:22.061Z,13.33
2022-11-20T06:08:50.493Z,13.17
2022-11-20T06:11:19.159Z,13.40
2022-11-20T06:13:47.470Z,13.40
2022-11-20T06:16:17.113Z,12.83
2022-11-20T06:18:45.218Z,13.47
2022-11-20T06:21:14.758Z,13.33
2022-11-20T06:23:44.770Z,13.70
2022-11-20T06:26:16.592Z,14.20
2022-11-20T06:28:44.488Z,13.27
2022-11-20T06:31:14.289Z,12.80
2022-11-20T06:33:42.337Z,12.43
2022-11-20T06:36:12.348Z,13.17
2022-11-20T06:38:40.902Z,13.63
2022-11-20T06:41:13.759Z,12.77
2022-11-20T06:43:42.061Z,12.30
2022-11-20T06:46:12.434Z,14.20
2022-11-20T06:48:40.420Z,12.10
2022-11-20T06:51:10.292Z,13.00
2022-11-20T06:53:38.684Z,13.20
2022-11-20T06:56:07.269Z,12.50
2022-11-20T06:58:37.449Z,13.13
2022-11-20T07:01:07.491Z,12.67
2022-11-20T07:03:35.479Z,12.67
2022-11-20T07:06:04.591Z,12.20
2022-11-20T07:08:32.658Z,11.83
2022-11-20T07:11:01.704Z,11.53
2022-11-20T07:13:30.040Z,12.70
2022-11-20T07:16:02.088Z,12.27
2022-11-20T07:18:29.966Z,12.07
2022-11-20T07:20:57.836Z,12.03
2022-11-20T07:23:25.617Z,12.13
2022-11-20T07:25:53.339Z,12.93
2022-11-20T07:28:21.188Z,12.07
2022-11-20T07:30:52.741Z,12.23
2022-11-20T07:33:22.341Z,12.60
2022-11-20T07:35:50.185Z,12.57
2022-11-20T07:38:17.984Z,11.83
2022-11-20T07:40:45.997Z,13.00
2022-11-20T07:43:13.792Z,11.90
2022-11-20T07:45:41.579Z,13.00
2022-11-20T07:48:09.482Z,12.90
2022-11-20T07:50:38.563Z,12.17
2022-11-20T07:53:07.232Z,11.73
2022-11-20T07:55:35.380Z,11.90
2022-11-20T07:58:03.402Z,12.13
2022-11-20T08:00:31.500Z,12.63
2022-11-20T08:02:59.613Z,12.10
2022-11-20T08:05:27.423Z,13.73
2022-11-20T08:07:56.552Z,11.93
2022-11-20T08:10:24.366Z,12.13
2022-11-20T08:13:11.230Z,11.53
2022-11-20T08:15:40.654Z,12.30
2022-11-20T08:20:57.927Z,11.80
2022-11-20T08:23:27.299Z,11.90
2022-11-20T08:25:55.424Z,11.27
2022-11-20T08:28:23.238Z,12.47
2022-11-20T08:30:51.643Z,11.73
2022-11-20T08:33:20.196Z,11.83
2022-11-20T08:35:48.183Z,11.27
2022-11-20T08:38:15.884Z,11.27
2022-11-20T08:41:06.299Z,11.37
2022-11-20T08:43:34.446Z,12.37
2022-11-20T08:46:02.322Z,11.00
2022-11-20T08:48:30.379Z,11.77
2022-11-20T08:51:00.667Z,11.17
2022-11-20T08:53:28.506Z,11.10
2022-11-20T08:55:59.298Z,11.37
2022-11-20T08:58:27.321Z,11.40
2022-11-20T09:00:55.454Z,11.17
2022-11-20T09:03:23.351Z,10.90
2022-11-20T09:05:52.011Z,11.30
2022-11-20T09:08:19.774Z,11.77
2022-11-20T09:10:47.601Z,11.80
2022-11-20T09:13:16.711Z,12.00
2022-11-20T09:15:44.402Z,10.93
2022-11-20T09:18:12.293Z,10.83
2022-11-20T09:20:40.130Z,10.63
2022-11-20T09:23:07.924Z,11.13
2022-11-20T09:25:35.740Z,9.43
2022-11-20T09:28:03.476Z,11.53
2022-11-20T09:30:32.826Z,11.67
2022-11-20T09:33:00.612Z,11.57
2022-11-20T09:35:28.780Z,11.23
2022-11-20T09:37:56.528Z,11.03
2022-11-20T09:40:27.714Z,11.20
2022-11-20T09:43:00.572Z,11.70
2022-11-20T09:45:44.707Z,11.60
2022-11-20T09:48:26.960Z,11.40
2022-11-20T09:51:00.985Z,11.10
2022-11-20T09:53:38.301Z,11.13
2022-11-20T09:56:06.793Z,11.33
2022-11-20T09:58:38.001Z,11.03
2022-11-20T10:01:13.580Z,11.00
2022-11-20T10:03:51.564Z,11.37
2022-11-20T10:06:23.791Z,10.83
2022-11-20T10:09:02.107Z,12.03
2022-11-20T10:11:41.911Z,11.30
2022-11-20T10:14:25.847Z,10.80
2022-11-20T10:17:04.604Z,10.60
2022-11-20T10:19:47.384Z,11.67
2022-11-20T10:22:30.252Z,10.30
2022-11-20T10:25:02.497Z,11.07
2022-11-20T10:27:46.309Z,11.37
2022-11-20T10:30:17.112Z,11.47
2022-11-20T10:32:49.710Z,11.33
2022-11-20T10:35:23.966Z,11.93
2022-11-20T10:37:57.644Z,11.87
2022-11-20T10:40:33.613Z,11.47
2022-11-20T10:43:05.030Z,11.80
2022-11-20T10:45:41.447Z,10.97
2022-11-20T10:48:18.609Z,12.70
2022-11-20T10:51:09.598Z,7.10
2022-11-20T10:53:51.660Z,10.47
2022-11-20T10:56:22.843Z,12.33
2022-11-20T10:59:04.451Z,9.23
2022-11-20T11:01:32.546Z,8.40
2022-11-20T11:04:01.812Z,9.70
2022-11-20T11:06:37.988Z,8.47
2022-11-20T11:09:15.091Z,7.83
2022-11-20T11:11:42.979Z,8.70
2022-11-20T11:14:13.649Z,8.50
2022-11-20T11:16:51.722Z,9.17
2022-11-20T11:19:21.194Z,9.40
2022-11-20T11:21:55.148Z,8.67
2022-11-20T11:24:42.714Z,9.43
2022-11-20T11:27:17.662Z,9.90
2022-11-20T11:29:48.113Z,9.00
2022-11-20T11:32:19.766Z,9.93
2022-11-20T11:35:01.408Z,9.50
2022-11-20T11:37:34.767Z,9.83
2022-11-20T11:42:56.953Z,10.03
2022-11-20T11:45:24.903Z,9.83
2022-11-20T11:47:54.540Z,10.07
2022-11-20T11:50:25.660Z,10.20
2022-11-20T11:53:06.024Z,10.00
2022-11-20T11:55:38.476Z,9.80
2022-11-20T11:58:18.249Z,9.03
2022-11-20T12:00:56.584Z,9.87
2022-11-20T12:03:29.620Z,10.17
2022-11-20T12:06:01.758Z,9.43
2022-11-20T12:08:33.923Z,10.83
2022-11-20T12:11:07.696Z,10.13
2022-11-20T12:13:50.510Z,10.33
2022-11-20T12:16:21.080Z,9.93
2022-11-20T12:18:52.138Z,10.37
2022-11-20T12:21:26.625Z,9.87
2022-11-20T12:24:11.654Z,9.57
2022-11-20T12:26:58.221Z,10.23
2022-11-20T12:29:39.483Z,10.20
2022-11-20T12:32:53.603Z,9.63
2022-11-20T12:35:38.672Z,10.20
2022-11-20T12:38:33.891Z,10.70
2022-11-20T12:41:11.132Z,10.30
2022-11-20T12:44:05.403Z,10.37
2022-11-20T12:46:41.504Z,10.40
2022-11-20T12:49:32.925Z,10.43
2022-11-20T12:52:25.669Z,10.07
2022-11-20T12:55:13.620Z,9.60
2022-11-20T12:57:51.367Z,10.27
2022-11-20T13:00:21.600Z,10.60
2022-11-20T13:03:35.641Z,10.07
2022-11-20T13:06:13.607Z,9.83
2022-11-20T13:08:42.895Z,11.10
2022-11-20T13:11:20.530Z,10.43
2022-11-20T13:14:06.614Z,9.90
2022-11-20T13:16:39.570Z,10.10
2022-11-20T13:19:12.294Z,10.07
2022-11-20T13:21:42.001Z,10.53
2022-11-20T13:24:24.648Z,10.50
2022-11-20T13:27:19.079Z,10.13
2022-11-20T13:30:00.631Z,11.00
2022-11-20T13:32:32.921Z,11.23
2022-11-20T13:35:02.601Z,10.80
2022-11-20T13:37:33.556Z,10.93
2022-11-20T13:40:15.059Z,10.63
2022-11-20T13:42:47.696Z,11.10
2022-11-20T13:45:25.166Z,11.37
2022-11-20T13:47:53.905Z,10.60
2022-11-20T13:50:31.503Z,9.93
2022-11-20T13:53:09.678Z,11.10
2022-11-20T13:55:44.356Z,11.73
2022-11-20T13:58:32.944Z,11.23
2022-11-20T14:01:13.326Z,12.07
2022-11-20T14:04:05.161Z,11.50
2022-11-20T14:06:32.585Z,10.37
2022-11-20T14:09:01.533Z,10.93
2022-11-20T14:11:31.408Z,11.53
2022-11-20T14:14:03.942Z,10.57
2022-11-20T14:16:34.539Z,10.33
2022-11-20T14:19:27.980Z,11.17
2022-11-20T14:22:07.988Z,11.17
2022-11-20T14:24:35.889Z,11.53
2022-11-20T14:27:04.070Z,10.97
2022-11-20T14:29:45.478Z,10.90
2022-11-20T14:32:16.569Z,10.40
2022-11-20T14:34:52.727Z,11.30
2022-11-20T14:37:23.666Z,11.33
2022-11-20T14:39:53.862Z,10.57
2022-11-20T14:42:23.677Z,11.03
2022-11-20T14:44:54.961Z,11.27
2022-11-20T14:47:25.673Z,9.80
2022-11-20T14:49:55.745Z,10.27
2022-11-20T14:52:24.979Z,9.93
2022-11-20T14:54:54.161Z,10.73
2022-11-20T14:57:26.331Z,11.60
2022-11-20T15:00:06.989Z,11.63
2022-11-20T15:02:34.916Z,12.03
2022-11-20T15:05:05.158Z,12.40
2022-11-20T15:07:36.265Z,11.43
2022-11-20T15:10:06.002Z,10.53
2022-11-20T15:12:34.988Z,10.20
2022-11-20T15:15:06.155Z,9.83
2022-11-20T15:17:36.922Z,10.33
2022-11-20T15:20:10.812Z,10.00
2022-11-20T15:22:38.559Z,10.33
2022-11-20T15:25:13.967Z,10.80
2022-11-20T15:27:41.916Z,9.70
2022-11-20T15:30:17.811Z,10.40
2022-11-20T15:32:46.993Z,10.63
2022-11-20T15:35:15.319Z,9.77
2022-11-20T15:37:43.876Z,10.77
2022-11-20T15:40:12.319Z,10.50
2022-11-20T15:43:00.093Z,10.00
2022-11-20T15:45:31.831Z,10.73
2022-11-20T15:47:59.749Z,10.17
2022-11-20T15:50:32.227Z,10.57
2022-11-20T15:53:00.093Z,11.50
2022-11-20T15:55:28.577Z,10.37
2022-11-20T15:57:56.847Z,11.07
2022-11-20T16:00:24.677Z,10.10
2022-11-20T16:02:53.860Z,10.20
2022-11-20T16:05:24.001Z,10.60
2022-11-20T16:07:52.853Z,10.03
2022-11-20T16:10:20.978Z,9.77
2022-11-20T16:13:06.210Z,9.47
2022-11-20T16:15:49.120Z,10.93
2022-11-20T16:18:20.792Z,8.90
2022-11-20T16:20:51.133Z,9.80
2022-11-20T16:23:19.770Z,9.80
2022-11-20T16:25:47.811Z,8.90
2022-11-20T16:28:18.914Z,8.87
2022-11-20T16:30:47.945Z,9.83
2022-11-20T16:33:19.042Z,8.63
2022-11-20T16:35:46.905Z,8.13
2022-11-20T16:38:14.835Z,8.87
2022-11-20T16:40:42.769Z,8.90
2022-11-20T16:43:12.207Z,9.43
2022-11-20T16:45:43.778Z,10.30
2022-11-20T16:48:16.012Z,8.53
2022-11-20T16:50:50.058Z,8.83
2022-11-20T16:53:18.248Z,8.87
2022-11-20T16:55:46.435Z,8.93
2022-11-20T16:58:14.923Z,8.00
2022-11-20T17:00:48.313Z,8.50
2022-11-20T17:03:21.156Z,8.90
2022-11-20T17:05:50.359Z,8.93
2022-11-20T17:08:18.217Z,8.53
2022-11-20T17:10:46.198Z,8.93
2022-11-20T17:13:14.019Z,8.37
2022-11-20T17:15:41.858Z,9.30
2022-11-20T17:18:10.087Z,8.73
2022-11-20T17:20:37.983Z,8.27
2022-11-20T17:23:07.130Z,7.43
2022-11-20T17:25:35.344Z,8.80
2022-11-20T17:28:03.508Z,8.50
2022-11-20T17:30:31.745Z,8.07
2022-11-20T17:32:59.747Z,8.57
2022-11-20T17:35:27.837Z,8.87
2022-11-20T17:37:55.667Z,7.70
2022-11-20T17:40:27.675Z,8.50
2022-11-20T17:42:55.989Z,8.23
2022-11-20T17:45:23.797Z,9.27
2022-11-20T17:47:52.114Z,9.10
2022-11-20T17:50:19.961Z,9.20
2022-11-20T17:52:47.797Z,8.83
2022-11-20T17:55:15.745Z,9.30
2022-11-20T17:57:52.764Z,8.83
2022-11-20T18:00:22.211Z,9.37
2022-11-20T18:02:50.248Z,9.63
2022-11-20T18:05:18.209Z,8.90
2022-11-20T18:07:46.109Z,8.53
2022-11-20T18:10:14.154Z,8.83
2022-11-20T18:12:41.962Z,9.80
2022-11-20T18:15:11.812Z,9.30
2022-11-20T18:17:39.535Z,8.87
2022-11-20T18:22:57.106Z,10.57
2022-11-20T18:25:25.020Z,9.17
2022-11-20T18:27:52.861Z,9.07
2022-11-20T18:30:22.178Z,9.43
2022-11-20T18:32:50.142Z,10.67
2022-11-20T18:35:18.148Z,10.00
2022-11-20T18:37:46.359Z,8.50
2022-11-20T18:40:14.924Z,9.50
2022-11-20T18:43:00.140Z,9.10
2022-11-20T18:45:30.383Z,8.80
2022-11-20T18:47:58.243Z,9.60
2022-11-20T18:50:26.169Z,9.90
2022-11-20T18:52:54.033Z,9.40
2022-11-20T18:55:24.999Z,9.73
2022-11-20T18:57:54.055Z,9.67
2022-11-20T19:00:21.911Z,10.30
2022-11-20T19:02:54.505Z,9.93
2022-11-20T19:05:22.840Z,9.90
2022-11-20T19:07:50.996Z,9.70
2022-11-20T19:10:20.285Z,9.17
2022-11-20T19:12:48.327Z,9.40
2022-11-20T19:15:16.311Z,9.53
2022-11-20T19:17:44.143Z,9.57
2022-11-20T19:20:13.941Z,9.23
2022-11-20T19:22:41.776Z,10.97
2022-11-20T19:25:10.264Z,9.20
2022-11-20T19:27:38.411Z,9.53
2022-11-20T19:30:07.065Z,9.90
2022-11-20T19:36:18.352Z,10.47
2022-11-20T19:42:08.952Z,9.77
2022-11-20T19:45:19.324Z,9.37
2022-11-20T19:48:16.124Z,9.17
2022-11-20T19:51:11.642Z,9.00
2022-11-20T19:54:45.393Z,9.67
2022-11-20T19:58:07.257Z,10.70
2022-11-20T20:01:06.285Z,10.03
2022-11-20T20:04:02.798Z,9.90
2022-11-20T20:06:47.084Z,10.37
2022-11-20T20:09:34.044Z,9.63
2022-11-20T20:12:01.878Z,10.63
2022-11-20T20:14:31.934Z,9.90
2022-11-20T20:16:59.600Z,9.53
2022-11-20T20:19:27.589Z,10.00
2022-11-20T20:21:55.904Z,9.83
2022-11-20T20:24:23.689Z,10.00
2022-11-20T20:26:54.328Z,10.13
2022-11-20T20:29:26.031Z,9.83
2022-11-20T20:31:55.760Z,10.73
2022-11-20T20:34:24.337Z,10.10
2022-11-20T20:36:52.040Z,10.07
2022-11-20T20:39:19.959Z,10.30
2022-11-20T20:41:47.751Z,9.77
2022-11-20T20:44:33.512Z,10.03
2022-11-20T20:47:02.884Z,9.93
2022-11-20T20:49:30.615Z,9.63
2022-11-20T20:52:07.573Z,9.73
2022-11-20T20:54:35.311Z,11.20
2022-11-20T20:57:03.116Z,10.87
2022-11-20T20:59:30.944Z,10.90
2022-11-20T21:01:58.801Z,10.27
2022-11-20T21:04:28.508Z,10.43
2022-11-20T21:06:56.288Z,10.70
2022-11-20T21:09:24.199Z,10.70
2022-11-20T21:11:52.054Z,9.80
2022-11-20T21:14:20.011Z,11.30
2022-11-20T21:16:47.905Z,10.30
2022-11-20T21:19:16.233Z,9.97
2022-11-20T21:21:59.418Z,11.57
2022-11-20T21:24:28.304Z,10.70
2022-11-20T21:26:57.103Z,10.67
2022-11-20T21:29:26.428Z,10.10
2022-11-20T21:31:54.412Z,11.30
2022-11-20T21:34:23.547Z,10.80
2022-11-20T21:36:53.513Z,12.43
2022-11-20T21:39:25.110Z,11.30
2022-11-20T21:41:52.907Z,11.37
2022-11-20T21:44:36.108Z,11.13
2022-11-20T21:47:04.030Z,11.93
2022-11-20T21:49:31.701Z,12.23
2022-11-20T21:52:00.952Z,12.10
2022-11-20T21:54:28.909Z,11.70
2022-11-20T21:56:56.882Z,10.87
2022-11-20T21:59:24.901Z,11.87
2022-11-20T22:01:52.658Z,12.10
2022-11-20T22:04:24.563Z,11.07
2022-11-20T22:06:53.635Z,9.57
2022-11-20T22:09:32.437Z,13.27
2022-11-20T22:12:00.794Z,11.77
2022-11-20T22:14:31.202Z,12.43
2022-11-20T22:17:06.054Z,11.37
2022-11-20T22:19:34.163Z,11.57
2022-11-20T22:22:02.112Z,12.47
2022-11-20T22:24:31.792Z,11.70
2022-11-20T22:27:02.687Z,12.50
2022-11-20T22:29:31.211Z,11.70
2022-11-20T22:31:59.014Z,11.57
2022-11-20T22:34:27.064Z,11.80
2022-11-20T22:36:54.960Z,11.37
2022-11-20T22:39:23.037Z,11.23
2022-11-20T22:41:52.268Z,12.23
2022-11-20T22:44:19.987Z,10.80
2022-11-20T22:46:47.827Z,11.57
2022-11-20T22:49:16.105Z,11.70
2022-11-20T22:51:43.962Z,10.90
2022-11-20T22:54:13.304Z,12.80
2022-11-20T22:56:41.187Z,11.80
2022-11-20T22:59:10.655Z,12.53
2022-11-20T23:01:38.791Z,12.53
2022-11-20T23:04:08.538Z,12.40
2022-11-20T23:06:36.419Z,11.10
2022-11-20T23:09:04.656Z,11.70
2022-11-20T23:11:33.189Z,11.63
2022-11-20T23:14:02.336Z,12.33
2022-11-20T23:16:33.319Z,11.00
2022-11-20T23:19:02.656Z,12.07
2022-11-20T23:21:30.369Z,12.17
2022-11-20T23:24:00.036Z,11.67
2022-11-20T23:26:30.929Z,11.87
2022-11-20T23:28:59.957Z,12.00
2022-11-20T23:31:29.814Z,11.50
2022-11-20T23:34:00.229Z,12.80
2022-11-20T23:36:27.973Z,11.83
2022-11-20T23:38:55.796Z,12.73
2022-11-20T23:41:23.554Z,12.77
2022-11-20T23:43:51.593Z,12.73
2022-11-20T23:46:19.392Z,13.33
2022-11-20T23:48:47.097Z,12.50
2022-11-20T23:51:16.650Z,13.07
2022-11-20T23:53:44.477Z,12.10
2022-11-20T23:56:14.267Z,13.07
2022-11-20T23:58:42.633Z,12.10
